createdAt,value
2022-09-30T00:00:35.272Z,679
2022-09-30T00:01:37.942Z,679
2022-09-30T00:02:40.323Z,679.4
2022-09-30T00:03:42.800Z,679.3
2022-09-30T00:04:45.278Z,679.3
2022-09-30T00:05:47.760Z,679.4
2022-09-30T00:06:49.958Z,679.4
2022-09-30T00:07:52.163Z,679.2
2022-09-30T00:08:54.363Z,679.2
2022-09-30T00:09:56.702Z,679.5
2022-09-30T00:10:59.161Z,679.3
2022-09-30T00:12:01.661Z,679.1
2022-09-30T00:13:04.155Z,679.3
2022-09-30T00:14:06.370Z,679.1
2022-09-30T00:15:08.849Z,678.8
2022-09-30T00:16:11.447Z,678.5
2022-09-30T00:17:13.667Z,678.3
2022-09-30T00:18:15.858Z,678
2022-09-30T00:19:18.068Z,677.9
2022-09-30T00:20:20.718Z,677.6
2022-09-30T00:21:23.102Z,677.8
2022-09-30T00:22:25.303Z,677.8
2022-09-30T00:23:27.785Z,677.9
2022-09-30T00:24:29.979Z,677.8
2022-09-30T00:25:32.486Z,678
2022-09-30T00:26:34.951Z,677.6
2022-09-30T00:27:37.141Z,677.5
2022-09-30T00:28:39.639Z,677.8
2022-09-30T00:29:42.104Z,677.6
2022-09-30T00:30:44.344Z,677.5
2022-09-30T00:31:47.460Z,677.8
2022-09-30T00:32:49.694Z,677.7
2022-09-30T00:33:51.613Z,677.9
2022-09-30T00:34:53.814Z,678.2
2022-09-30T00:35:55.988Z,678.4
2022-09-30T00:36:58.236Z,678.4
2022-09-30T00:38:00.716Z,678.7
2022-09-30T00:39:02.351Z,678.8
2022-09-30T00:40:04.554Z,679.3
2022-09-30T00:41:06.508Z,679
2022-09-30T00:42:08.970Z,679
2022-09-30T00:43:10.887Z,678.7
2022-09-30T00:44:13.370Z,678.9
2022-09-30T00:45:15.847Z,679.5
2022-09-30T00:46:18.660Z,679
2022-09-30T00:47:21.174Z,679.1
2022-09-30T00:48:23.644Z,679
2022-09-30T00:49:26.124Z,678.9
2022-09-30T00:50:28.604Z,678.4
2022-09-30T00:51:30.797Z,678.8
2022-09-30T00:52:33.320Z,678.4
2022-09-30T00:53:35.824Z,678.4
2022-09-30T00:54:38.120Z,678.2
2022-09-30T00:55:40.323Z,678.2
2022-09-30T00:56:42.616Z,678.2
2022-09-30T00:57:45.175Z,677.9
2022-09-30T00:58:47.367Z,678.1
2022-09-30T00:59:49.870Z,677.6
2022-09-30T01:00:52.795Z,677.3
2022-09-30T01:01:55.690Z,677.5
2022-09-30T01:02:57.936Z,677
2022-09-30T01:04:00.416Z,677.2
2022-09-30T01:05:02.601Z,677.1
2022-09-30T01:06:05.081Z,676.4
2022-09-30T01:07:07.555Z,676.8
2022-09-30T01:08:09.786Z,676.8
2022-09-30T01:09:12.570Z,676.3
2022-09-30T01:10:15.046Z,676.1
2022-09-30T01:11:16.965Z,675.9
2022-09-30T01:12:19.506Z,675.9
2022-09-30T01:13:21.692Z,675.9
2022-09-30T01:14:23.890Z,676.2
2022-09-30T01:15:25.818Z,675.8
2022-09-30T01:16:28.754Z,675.7
2022-09-30T01:17:30.705Z,675.7
2022-09-30T01:18:33.188Z,676.1
2022-09-30T01:19:35.658Z,676.2
2022-09-30T01:20:38.126Z,675.8
2022-09-30T01:21:40.595Z,675.7
2022-09-30T01:22:44.130Z,676
2022-09-30T01:23:46.348Z,675.8
2022-09-30T01:24:48.540Z,675.9
2022-09-30T01:25:50.743Z,675.7
2022-09-30T01:26:53.211Z,675.4
2022-09-30T01:27:55.747Z,675.2
2022-09-30T01:28:58.244Z,675
2022-09-30T01:30:00.444Z,675
2022-09-30T01:31:03.286Z,674.7
2022-09-30T01:32:05.780Z,675.1
2022-09-30T01:33:07.953Z,674.7
2022-09-30T01:34:10.424Z,674.8
2022-09-30T01:35:12.615Z,675
2022-09-30T01:36:15.086Z,674.7
2022-09-30T01:37:17.279Z,674.8
2022-09-30T01:38:19.759Z,674.1
2022-09-30T01:39:22.946Z,674.1
2022-09-30T01:40:25.575Z,674
2022-09-30T01:41:28.044Z,674.3
2022-09-30T01:42:30.520Z,673.9
2022-09-30T01:43:33.046Z,674.3
2022-09-30T01:44:35.241Z,674.1
2022-09-30T01:45:37.723Z,673.8
2022-09-30T01:46:40.237Z,673.8
2022-09-30T01:47:42.752Z,673.4
2022-09-30T01:48:44.674Z,673.3
2022-09-30T01:49:47.147Z,672.8
2022-09-30T01:50:49.615Z,673.3
2022-09-30T01:51:52.093Z,673.1
2022-09-30T01:52:54.004Z,673.5
2022-09-30T01:53:56.470Z,673.6
2022-09-30T01:54:58.982Z,673.7
2022-09-30T01:56:01.520Z,673.7
2022-09-30T01:57:03.435Z,674.1
2022-09-30T01:58:05.630Z,673.4
2022-09-30T01:59:08.146Z,673.6
2022-09-30T02:00:10.617Z,673.6
2022-09-30T02:01:13.096Z,673.6
2022-09-30T02:02:15.607Z,673.6
2022-09-30T02:03:18.110Z,673.7
2022-09-30T02:04:20.577Z,673.8
2022-09-30T02:05:23.079Z,673.9
2022-09-30T02:06:25.542Z,673.2
2022-09-30T02:07:27.448Z,673.6
2022-09-30T02:08:29.921Z,673
2022-09-30T02:09:32.678Z,673.4
2022-09-30T02:10:34.932Z,673.5
2022-09-30T02:11:37.488Z,673.5
2022-09-30T02:12:39.681Z,673.6
2022-09-30T02:13:42.147Z,673.9
2022-09-30T02:14:43.805Z,674.4
2022-09-30T02:15:45.713Z,674.4
2022-09-30T02:16:47.912Z,674.6
2022-09-30T02:17:50.390Z,674.3
2022-09-30T02:18:52.864Z,674.9
2022-09-30T02:19:55.064Z,675
2022-09-30T02:20:56.981Z,675.1
2022-09-30T02:21:59.163Z,675
2022-09-30T02:23:01.346Z,675.1
2022-09-30T02:24:03.541Z,674.8
2022-09-30T02:25:05.457Z,674.9
2022-09-30T02:26:08.012Z,675
2022-09-30T02:27:10.504Z,674.7
2022-09-30T02:28:12.978Z,675
2022-09-30T02:29:15.624Z,675.1
2022-09-30T02:30:18.204Z,675.1
2022-09-30T02:31:20.997Z,675.3
2022-09-30T02:32:23.503Z,675.2
2022-09-30T02:33:25.991Z,675.1
2022-09-30T02:34:28.184Z,675.2
2022-09-30T02:35:30.657Z,674.9
2022-09-30T02:36:33.130Z,674.8
2022-09-30T02:37:35.617Z,674.7
2022-09-30T02:38:38.143Z,674.9
2022-09-30T02:39:40.331Z,675.2
2022-09-30T02:40:42.526Z,675
2022-09-30T02:41:44.744Z,675.3
2022-09-30T02:42:47.265Z,674.8
2022-09-30T02:43:49.464Z,674.7
2022-09-30T02:44:51.388Z,674.3
2022-09-30T02:45:53.909Z,674.3
2022-09-30T02:46:56.837Z,674.3
2022-09-30T02:47:59.044Z,673.8
2022-09-30T02:49:00.978Z,673.7
2022-09-30T02:50:02.901Z,673.8
2022-09-30T02:51:05.084Z,673.5
2022-09-30T02:52:07.289Z,673.3
2022-09-30T02:53:09.760Z,673.3
2022-09-30T02:54:12.229Z,672.9
2022-09-30T02:55:14.724Z,673.2
2022-09-30T02:56:17.210Z,672.6
2022-09-30T02:57:19.692Z,672.8
2022-09-30T02:58:21.908Z,672.4
2022-09-30T02:59:24.702Z,672.5
2022-09-30T03:00:26.646Z,672.3
2022-09-30T03:01:28.703Z,672.1
2022-09-30T03:02:30.889Z,672.2
2022-09-30T03:03:33.072Z,671.4
2022-09-30T03:04:35.562Z,671.5
2022-09-30T03:05:37.763Z,671.6
2022-09-30T03:06:40.228Z,671.7
2022-09-30T03:07:42.441Z,671.7
2022-09-30T03:08:44.909Z,672.2
2022-09-30T03:09:47.792Z,671.9
2022-09-30T03:10:50.040Z,672.3
2022-09-30T03:11:52.249Z,671.8
2022-09-30T03:12:54.745Z,671.8
2022-09-30T03:13:57.075Z,671.8
2022-09-30T03:14:59.541Z,671.7
2022-09-30T03:16:02.355Z,671.1
2022-09-30T03:17:04.365Z,671.2
2022-09-30T03:18:06.826Z,670.7
2022-09-30T03:19:09.025Z,670.3
2022-09-30T03:20:10.938Z,670.7
2022-09-30T03:21:13.431Z,670.7
2022-09-30T03:22:15.622Z,670.5
2022-09-30T03:23:18.090Z,670.4
2022-09-30T03:24:20.289Z,670.8
2022-09-30T03:25:22.486Z,670.2
2022-09-30T03:26:24.949Z,670.6
2022-09-30T03:27:27.462Z,670.3
2022-09-30T03:28:30.088Z,670.3
2022-09-30T03:29:32.572Z,669.5
2022-09-30T03:30:35.058Z,669.7
2022-09-30T03:31:37.919Z,669.5
2022-09-30T03:32:40.191Z,669
2022-09-30T03:33:42.388Z,668.9
2022-09-30T03:34:44.853Z,668.8
2022-09-30T03:35:47.049Z,668.3
2022-09-30T03:36:48.973Z,668.4
2022-09-30T03:37:51.172Z,668.3
2022-09-30T03:38:53.371Z,668.5
2022-09-30T03:39:55.572Z,668.1
2022-09-30T03:40:58.057Z,667.9
2022-09-30T03:42:00.528Z,668.3
2022-09-30T03:43:03.017Z,668.2
2022-09-30T03:44:05.231Z,668.1
2022-09-30T03:45:07.466Z,668.1
2022-09-30T03:46:10.004Z,668.2
2022-09-30T03:47:12.537Z,668.1
2022-09-30T03:48:15.038Z,668.5
2022-09-30T03:49:17.507Z,668.4
2022-09-30T03:50:19.980Z,668.4
2022-09-30T03:51:22.207Z,668.2
2022-09-30T03:52:24.671Z,668.3
2022-09-30T03:53:26.870Z,668
2022-09-30T03:54:28.793Z,668.4
2022-09-30T03:55:30.713Z,668.2
2022-09-30T03:56:33.205Z,668.8
2022-09-30T03:57:35.419Z,668.5
2022-09-30T03:58:37.884Z,668.7
2022-09-30T03:59:40.370Z,668.6
2022-09-30T04:00:43.200Z,668.7
2022-09-30T04:01:45.640Z,668.7
2022-09-30T04:02:47.830Z,668.8
2022-09-30T04:03:50.059Z,668.8
2022-09-30T04:04:52.523Z,668.3
2022-09-30T04:05:54.714Z,668.4
2022-09-30T04:06:57.209Z,667.9
2022-09-30T04:07:59.684Z,667.9
2022-09-30T04:09:02.389Z,667.2
2022-09-30T04:10:04.303Z,667.4
2022-09-30T04:11:06.772Z,667
2022-09-30T04:12:08.676Z,667.1
2022-09-30T04:13:11.156Z,667
2022-09-30T04:14:13.065Z,667
2022-09-30T04:15:15.550Z,667.5
2022-09-30T04:16:18.551Z,667.5
2022-09-30T04:17:20.774Z,667.1
2022-09-30T04:18:23.326Z,667
2022-09-30T04:19:25.861Z,667
2022-09-30T04:20:28.325Z,666.7
2022-09-30T04:21:30.247Z,666.5
2022-09-30T04:22:32.453Z,666.4
2022-09-30T04:23:34.651Z,666.3
2022-09-30T04:24:36.572Z,666.7
2022-09-30T04:25:39.058Z,666.7
2022-09-30T04:26:41.532Z,666.3
2022-09-30T04:27:44.018Z,666.6
2022-09-30T04:28:46.490Z,666.3
2022-09-30T04:29:48.425Z,665.9
2022-09-30T04:30:50.656Z,666
2022-09-30T04:31:53.631Z,665.7
2022-09-30T04:32:56.129Z,665.4
2022-09-30T04:33:58.624Z,665.4
2022-09-30T04:35:00.906Z,665.3
2022-09-30T04:36:03.371Z,665
2022-09-30T04:38:10.863Z,664.7
2022-09-30T04:39:13.387Z,664.4
2022-09-30T04:40:15.587Z,664.5
2022-09-30T04:41:18.097Z,664.5
2022-09-30T04:42:20.298Z,664.1
2022-09-30T04:43:22.775Z,664.3
2022-09-30T04:44:25.240Z,664.1
2022-09-30T04:45:27.901Z,664.2
2022-09-30T04:46:30.163Z,664.4
2022-09-30T04:47:32.636Z,664.3
2022-09-30T04:48:35.108Z,664.3
2022-09-30T04:49:37.341Z,664.3
2022-09-30T04:50:39.990Z,664.3
2022-09-30T04:51:42.212Z,664.5
2022-09-30T04:52:44.696Z,664.1
2022-09-30T04:53:46.913Z,664.2
2022-09-30T04:54:49.138Z,664.3
2022-09-30T04:55:51.611Z,663.8
2022-09-30T04:56:54.106Z,663.4
2022-09-30T04:57:56.313Z,663.4
2022-09-30T04:58:58.529Z,663.5
2022-09-30T05:00:01.012Z,663.2
2022-09-30T05:01:03.107Z,663.2
2022-09-30T05:02:06.091Z,663.2
2022-09-30T05:03:08.603Z,663.4
2022-09-30T05:04:10.503Z,663.5
2022-09-30T05:05:12.428Z,663.3
2022-09-30T05:06:14.663Z,663.5
2022-09-30T05:07:17.120Z,663.6
2022-09-30T05:08:19.598Z,663.9
2022-09-30T05:09:23.216Z,663.5
2022-09-30T05:10:25.777Z,663.8
2022-09-30T05:11:27.695Z,663.8
2022-09-30T05:12:29.886Z,663.5
2022-09-30T05:13:31.795Z,663.9
2022-09-30T05:14:34.284Z,663.4
2022-09-30T05:15:36.462Z,663.2
2022-09-30T05:16:39.116Z,663.1
2022-09-30T05:17:41.344Z,663.2
2022-09-30T05:18:43.557Z,663
2022-09-30T05:19:45.206Z,662.7
2022-09-30T05:20:47.397Z,662.6
2022-09-30T05:21:49.653Z,662.6
2022-09-30T05:22:52.146Z,662.7
2022-09-30T05:23:54.098Z,662.8
2022-09-30T05:24:56.594Z,662.7
2022-09-30T05:25:59.080Z,662.9
2022-09-30T05:27:01.567Z,662.9
2022-09-30T05:28:04.066Z,663
2022-09-30T05:29:05.974Z,662.6
2022-09-30T05:30:08.449Z,662.3
2022-09-30T05:31:11.325Z,662.1
2022-09-30T05:32:13.269Z,662.1
2022-09-30T05:33:15.772Z,661.9
2022-09-30T05:34:17.997Z,661.9
2022-09-30T05:35:19.927Z,661.9
2022-09-30T05:36:22.103Z,661.6
2022-09-30T05:37:24.343Z,661.5
2022-09-30T05:38:26.800Z,661.6
2022-09-30T05:39:28.745Z,662.1
2022-09-30T05:40:31.249Z,661.8
2022-09-30T05:41:33.739Z,661.3
2022-09-30T05:42:35.956Z,661.4
2022-09-30T05:43:37.877Z,660.6
2022-09-30T05:44:39.506Z,660.8
2022-09-30T05:45:41.734Z,660.6
2022-09-30T05:46:44.276Z,660.2
2022-09-30T05:47:46.817Z,659.7
2022-09-30T05:48:49.300Z,659.8
2022-09-30T05:50:56.234Z,659.5
2022-09-30T05:51:58.425Z,659.6
2022-09-30T05:53:01.035Z,659.6
2022-09-30T05:54:02.945Z,659.5
2022-09-30T05:55:04.918Z,659.1
2022-09-30T05:56:07.178Z,659.3
2022-09-30T05:57:09.697Z,659
2022-09-30T05:58:11.598Z,658.6
2022-09-30T05:59:13.529Z,658.7
2022-09-30T06:00:15.725Z,658
2022-09-30T06:01:18.214Z,657.7
2022-09-30T06:02:20.916Z,657.7
2022-09-30T06:03:23.137Z,657.8
2022-09-30T06:04:25.349Z,657.5
2022-09-30T06:05:27.562Z,657.5
2022-09-30T06:06:30.031Z,657.5
2022-09-30T06:07:32.237Z,657.3
2022-09-30T06:08:34.543Z,657.5
2022-09-30T06:09:37.636Z,657.2
2022-09-30T06:10:39.880Z,657.3
2022-09-30T06:11:42.399Z,657.7
2022-09-30T06:12:44.877Z,657.3
2022-09-30T06:13:47.367Z,657.3
2022-09-30T06:14:49.600Z,657.4
2022-09-30T06:15:52.076Z,656.8
2022-09-30T06:16:55.075Z,657.1
2022-09-30T06:17:57.532Z,656.8
2022-09-30T06:18:59.436Z,656.8
2022-09-30T06:20:01.939Z,656.5
2022-09-30T06:21:04.434Z,656.4
2022-09-30T06:22:06.912Z,656.1
2022-09-30T06:23:08.833Z,656.2
2022-09-30T06:24:11.370Z,656.5
2022-09-30T06:25:13.838Z,656.5
2022-09-30T06:26:16.079Z,656.2
2022-09-30T06:27:18.290Z,656.3
2022-09-30T06:28:20.773Z,656.4
2022-09-30T06:29:23.303Z,656.4
2022-09-30T06:30:25.287Z,656.5
2022-09-30T06:31:27.752Z,656.4
2022-09-30T06:32:29.976Z,656.8
2022-09-30T06:33:32.455Z,656.6
2022-09-30T06:34:34.930Z,656.5
2022-09-30T06:35:37.529Z,656.6
2022-09-30T06:36:39.732Z,656.7
2022-09-30T06:37:42.193Z,657.1
2022-09-30T06:38:44.670Z,657
2022-09-30T06:39:46.943Z,657.3
2022-09-30T06:40:49.140Z,656.9
2022-09-30T06:41:51.613Z,657.1
2022-09-30T06:42:53.857Z,656.6
2022-09-30T06:45:01.028Z,656.2
2022-09-30T06:48:13.812Z,655.5
2022-09-30T06:49:15.840Z,655.7
2022-09-30T06:51:23.062Z,655.1
2022-09-30T06:52:25.289Z,655
2022-09-30T06:53:27.509Z,655
2022-09-30T06:54:29.701Z,654.5
2022-09-30T06:55:32.289Z,654.3
2022-09-30T06:56:34.483Z,654.5
2022-09-30T06:57:36.962Z,654.6
2022-09-30T06:58:38.896Z,654.6
2022-09-30T06:59:41.383Z,654.3
2022-09-30T07:00:43.838Z,654.3
2022-09-30T07:01:46.480Z,654.5
2022-09-30T07:02:48.998Z,654.7
2022-09-30T07:04:56.243Z,653.6
2022-09-30T07:05:58.445Z,653.4
2022-09-30T07:07:00.381Z,653.4
2022-09-30T07:08:02.304Z,653
2022-09-30T07:09:04.953Z,653
2022-09-30T07:10:07.185Z,653.3
2022-09-30T07:11:09.456Z,653.1
2022-09-30T07:12:11.938Z,653.7
2022-09-30T07:13:14.138Z,653.1
2022-09-30T07:14:16.653Z,653.1
2022-09-30T07:15:19.143Z,653
2022-09-30T07:16:21.618Z,652.6
2022-09-30T07:17:23.864Z,652.3
2022-09-30T07:18:26.062Z,652.5
2022-09-30T07:19:28.262Z,652.2
2022-09-30T07:20:30.466Z,652.1
2022-09-30T07:21:32.683Z,652.1
2022-09-30T07:22:35.218Z,652.2
2022-09-30T07:23:37.443Z,652.1
2022-09-30T07:24:39.643Z,652.2
2022-09-30T07:25:41.852Z,652.1
2022-09-30T07:26:44.387Z,652.2
2022-09-30T07:27:46.917Z,652.4
2022-09-30T07:28:49.145Z,652.7
2022-09-30T07:32:01.693Z,652.8
2022-09-30T07:33:04.264Z,652.9
2022-09-30T07:34:06.741Z,652.9
2022-09-30T07:35:08.928Z,652.9
2022-09-30T07:36:11.410Z,652.8
2022-09-30T07:37:13.313Z,652.9
2022-09-30T07:38:15.536Z,653.1
2022-09-30T07:39:17.569Z,653.4
2022-09-30T07:40:19.490Z,653.1
2022-09-30T07:41:21.700Z,653.6
2022-09-30T07:42:25.153Z,653.6
2022-09-30T07:43:27.411Z,653.3
2022-09-30T07:44:29.892Z,653.3
2022-09-30T07:45:32.549Z,653.3
2022-09-30T07:46:34.786Z,653.3
2022-09-30T07:47:36.730Z,653.5
2022-09-30T07:48:39.203Z,653.4
2022-09-30T07:49:41.128Z,653.2
2022-09-30T07:50:43.068Z,653
2022-09-30T07:51:45.272Z,652.9
2022-09-30T07:52:47.767Z,652.9
2022-09-30T07:53:49.990Z,652.5
2022-09-30T07:54:52.944Z,652.8
2022-09-30T07:55:55.415Z,652.3
2022-09-30T07:58:02.688Z,652
2022-09-30T07:59:04.880Z,652
2022-09-30T08:01:12.976Z,651.5
2022-09-30T08:02:15.671Z,651.1
2022-09-30T08:03:17.661Z,651.1
2022-09-30T08:04:20.138Z,650.9
2022-09-30T08:05:22.346Z,650.6
2022-09-30T08:06:24.558Z,650.3
2022-09-30T08:07:26.755Z,650.1
2022-09-30T08:08:28.940Z,650.2
2022-09-30T08:09:32.910Z,650.5
2022-09-30T08:10:35.155Z,650
2022-09-30T08:11:37.358Z,650.1
2022-09-30T08:12:39.875Z,650.2
2022-09-30T08:13:42.128Z,649.8
2022-09-30T08:14:44.616Z,649.8
2022-09-30T08:15:47.101Z,649.9
2022-09-30T08:16:48.821Z,649.4
2022-09-30T08:17:51.355Z,649.7
2022-09-30T08:18:53.288Z,649.7
2022-09-30T08:19:55.219Z,649.8
2022-09-30T08:20:57.703Z,650.1
2022-09-30T08:22:00.638Z,650.1
2022-09-30T08:23:02.827Z,650.2
2022-09-30T08:24:05.358Z,650.2
2022-09-30T08:25:07.324Z,650.1
2022-09-30T08:26:09.550Z,650.1
2022-09-30T08:27:12.465Z,650.2
2022-09-30T08:28:14.984Z,649.7
2022-09-30T08:30:22.377Z,650
2022-09-30T08:31:25.233Z,649.7
2022-09-30T08:32:27.751Z,650.1
2022-09-30T08:33:29.949Z,649.7
2022-09-30T08:34:31.883Z,649.5
2022-09-30T08:35:34.078Z,649.6
2022-09-30T08:36:36.595Z,649.3
2022-09-30T08:37:39.096Z,649.1
2022-09-30T08:38:41.317Z,648.9
2022-09-30T08:39:43.223Z,648.7
2022-09-30T08:40:45.727Z,648.7
2022-09-30T08:41:47.976Z,648.9
2022-09-30T08:43:55.185Z,648.6
2022-09-30T08:44:57.498Z,648.8
2022-09-30T08:46:00.280Z,648.7
2022-09-30T08:47:02.528Z,648.9
2022-09-30T08:48:05.495Z,648.5
2022-09-30T08:49:07.762Z,648.4
2022-09-30T08:50:10.268Z,648.5
2022-09-30T08:51:12.744Z,648.7
2022-09-30T08:53:20.214Z,648.3
2022-09-30T08:54:22.138Z,648.5
2022-09-30T08:55:23.787Z,648.3
2022-09-30T08:56:26.277Z,647.8
2022-09-30T08:57:28.792Z,647.8
2022-09-30T08:58:30.696Z,647.6
2022-09-30T08:59:32.909Z,647.5
2022-09-30T09:00:35.096Z,647.1
2022-09-30T09:01:38.258Z,647.1
2022-09-30T09:02:40.755Z,647.5
2022-09-30T09:03:43.003Z,647.2
2022-09-30T09:04:45.494Z,647.1
2022-09-30T09:06:52.734Z,646.8
2022-09-30T09:07:55.213Z,646.8
2022-09-30T09:08:57.127Z,646.7
2022-09-30T09:09:59.599Z,646.3
2022-09-30T09:11:02.084Z,645.9
2022-09-30T09:12:04.025Z,646
2022-09-30T09:13:06.254Z,645.9
2022-09-30T09:14:08.441Z,645.9
2022-09-30T09:15:10.647Z,645.5
2022-09-30T09:16:13.141Z,645.3
2022-09-30T09:19:26.229Z,645
2022-09-30T09:20:28.474Z,644.8
2022-09-30T09:21:30.399Z,644.8
2022-09-30T09:22:32.735Z,644.7
2022-09-30T09:23:34.941Z,644.9
2022-09-30T09:24:37.416Z,644.3
2022-09-30T09:25:39.914Z,644.6
2022-09-30T09:26:42.167Z,644.4
2022-09-30T09:27:44.980Z,644.2
2022-09-30T09:29:52.204Z,644.1
2022-09-30T09:30:54.687Z,643.8
2022-09-30T09:31:56.761Z,644
2022-09-30T09:32:58.979Z,644.5
2022-09-30T09:34:01.194Z,644.5
2022-09-30T09:35:03.726Z,644.5
2022-09-30T09:36:05.963Z,644.6
2022-09-30T09:37:08.153Z,644.7
2022-09-30T09:38:10.407Z,644.5
2022-09-30T09:39:12.068Z,644.6
2022-09-30T09:40:14.283Z,644.4
2022-09-30T09:41:16.478Z,644.3
2022-09-30T09:42:18.571Z,644.5
2022-09-30T09:43:22.159Z,644.5
2022-09-30T09:44:27.795Z,644.5
2022-09-30T09:45:30.099Z,644.4
2022-09-30T09:46:32.613Z,644.5
2022-09-30T09:47:34.245Z,644.1
2022-09-30T09:48:36.437Z,644.2
2022-09-30T09:49:42.065Z,644.7
2022-09-30T09:50:44.581Z,644.6
2022-09-30T09:51:46.512Z,644.9
2022-09-30T09:52:48.994Z,645.2
2022-09-30T09:53:51.210Z,645.3
2022-09-30T09:54:53.691Z,645.3
2022-09-30T09:55:55.891Z,645.4
2022-09-30T09:56:58.092Z,645.5
2022-09-30T09:58:00.292Z,645.4
2022-09-30T09:59:02.361Z,645.5
2022-09-30T10:00:04.962Z,645.3
2022-09-30T10:02:12.527Z,645
2022-09-30T10:03:15.016Z,645.3
2022-09-30T10:04:17.517Z,645.1
2022-09-30T10:05:19.722Z,644.8
2022-09-30T10:06:22.267Z,644.1
2022-09-30T10:07:24.729Z,644.6
2022-09-30T10:08:27.204Z,643.4
2022-09-30T10:09:29.690Z,644.1
2022-09-30T10:10:31.891Z,643.7
2022-09-30T10:11:34.360Z,642.8
2022-09-30T10:12:36.834Z,642.9
2022-09-30T10:13:39.305Z,643
2022-09-30T10:14:41.797Z,642.5
2022-09-30T10:15:44.057Z,642.3
2022-09-30T10:16:45.982Z,642.3
2022-09-30T10:17:48.454Z,642.8
2022-09-30T10:18:50.933Z,642.7
2022-09-30T10:19:52.856Z,642.7
2022-09-30T10:20:54.871Z,642.6
2022-09-30T10:21:59.455Z,643.1
2022-09-30T10:23:01.927Z,643.1
2022-09-30T10:24:03.907Z,642.7
2022-09-30T10:25:06.401Z,642.9
2022-09-30T10:26:08.329Z,643.1
2022-09-30T10:27:10.805Z,642.9
2022-09-30T10:28:13.665Z,642.6
2022-09-30T10:29:16.001Z,643.3
2022-09-30T10:30:18.522Z,642.8
2022-09-30T10:31:20.836Z,643.5
2022-09-30T10:32:23.530Z,643.2
2022-09-30T10:33:26.003Z,643
2022-09-30T10:34:28.213Z,643
2022-09-30T10:35:30.729Z,642.3
2022-09-30T10:36:32.958Z,642.6
2022-09-30T10:37:35.532Z,642.7
2022-09-30T10:38:37.783Z,643.2
2022-09-30T10:39:39.418Z,642.6
2022-09-30T10:40:41.342Z,642.7
2022-09-30T10:41:43.562Z,642.4
2022-09-30T10:42:45.490Z,642.3
2022-09-30T10:43:47.702Z,641.9
2022-09-30T10:44:49.914Z,641.7
2022-09-30T10:46:57.905Z,641.7
2022-09-30T10:48:00.139Z,641.6
2022-09-30T10:49:02.066Z,641.7
2022-09-30T10:50:03.984Z,641.6
2022-09-30T10:51:06.187Z,641.5
2022-09-30T10:52:08.660Z,641.3
2022-09-30T10:53:11.187Z,641.8
2022-09-30T10:54:13.371Z,641.5
2022-09-30T10:56:20.634Z,641.5
2022-09-30T10:57:22.539Z,641.7
2022-09-30T10:58:24.747Z,641.2
2022-09-30T10:59:27.221Z,641
2022-09-30T11:00:29.446Z,640.8
2022-09-30T11:01:33.327Z,640.9
2022-09-30T11:02:35.647Z,641
2022-09-30T11:03:38.325Z,641.2
2022-09-30T11:04:40.855Z,640.8
2022-09-30T11:05:42.780Z,641.1
2022-09-30T11:06:45.263Z,641.2
2022-09-30T11:07:47.470Z,641.4
2022-09-30T11:08:49.985Z,641.2
2022-09-30T11:09:52.482Z,641.1
2022-09-30T11:10:54.978Z,640.7
2022-09-30T11:11:57.566Z,640.5
2022-09-30T11:13:00.054Z,640.7
2022-09-30T11:14:01.974Z,640.5
2022-09-30T11:15:03.883Z,639.9
2022-09-30T11:16:06.782Z,639.6
2022-09-30T11:17:08.751Z,639.4
2022-09-30T11:18:11.311Z,639.8
2022-09-30T11:19:13.536Z,639.6
2022-09-30T11:20:15.866Z,639.6
2022-09-30T11:21:18.331Z,639.3
2022-09-30T11:22:20.816Z,639.2
2022-09-30T11:23:23.305Z,638.7
2022-09-30T11:24:25.852Z,638.9
2022-09-30T11:25:28.337Z,638.7
2022-09-30T11:26:31.674Z,638.5
2022-09-30T11:27:33.963Z,638
2022-09-30T11:28:36.185Z,638.1
2022-09-30T11:29:38.398Z,638.2
2022-09-30T11:30:40.613Z,638.4
2022-09-30T11:31:43.494Z,638.8
2022-09-30T11:32:46.006Z,638.9
2022-09-30T11:33:48.592Z,639.1
2022-09-30T11:34:51.158Z,639.2
2022-09-30T11:35:53.109Z,639.1
2022-09-30T11:36:55.302Z,639.1
2022-09-30T11:37:57.792Z,639.2
2022-09-30T11:39:00.004Z,639
2022-09-30T11:40:02.254Z,639.3
2022-09-30T11:41:04.735Z,639.3
2022-09-30T11:42:06.979Z,639.6
2022-09-30T11:43:10.418Z,639.3
2022-09-30T11:44:12.626Z,639.6
2022-09-30T11:45:14.527Z,639.3
2022-09-30T11:46:17.256Z,639.6
2022-09-30T11:47:19.243Z,639.4
2022-09-30T11:48:21.720Z,639.2
2022-09-30T11:49:24.254Z,639.6
2022-09-30T11:50:26.191Z,639.3
2022-09-30T11:51:28.101Z,639.7
2022-09-30T11:52:30.582Z,639.9
2022-09-30T11:53:33.068Z,640
2022-09-30T11:54:35.541Z,640.3
2022-09-30T11:55:37.874Z,640.1
2022-09-30T11:56:40.064Z,639.9
2022-09-30T11:57:42.271Z,639.6
2022-09-30T11:58:44.866Z,639.3
2022-09-30T11:59:47.070Z,639.1
2022-09-30T12:00:49.541Z,639.1
2022-09-30T12:01:52.131Z,638.5
2022-09-30T12:02:55.041Z,638.6
2022-09-30T12:03:57.259Z,639
2022-09-30T12:04:59.832Z,639
2022-09-30T12:06:02.031Z,639.5
2022-09-30T12:07:04.559Z,639.4
2022-09-30T12:08:07.045Z,639.3
2022-09-30T12:09:08.971Z,638.9
2022-09-30T12:10:11.507Z,639.1
2022-09-30T12:11:14.085Z,638.9
2022-09-30T12:13:21.553Z,639.2
2022-09-30T12:14:24.047Z,639.3
2022-09-30T12:15:25.980Z,639.2
2022-09-30T12:16:30.891Z,639
2022-09-30T12:17:33.646Z,639.2
2022-09-30T12:18:35.847Z,639.3
2022-09-30T12:19:38.331Z,639.5
2022-09-30T12:20:40.843Z,639.2
2022-09-30T12:21:42.778Z,639.6
2022-09-30T12:22:45.010Z,639.6
2022-09-30T12:23:47.539Z,639.8
2022-09-30T12:24:49.750Z,639.8
2022-09-30T12:25:51.679Z,640.1
2022-09-30T12:26:53.374Z,639.9
2022-09-30T12:27:55.966Z,640.1
2022-09-30T12:30:03.517Z,640.3
2022-09-30T12:31:05.709Z,640.2
2022-09-30T12:32:08.589Z,640.6
2022-09-30T12:33:10.600Z,640.7
2022-09-30T12:34:12.791Z,640.5
2022-09-30T12:35:15.269Z,640.4
2022-09-30T12:36:17.835Z,640
2022-09-30T12:37:20.302Z,639.9
2022-09-30T12:38:22.490Z,639.6
2022-09-30T12:39:24.961Z,639.3
2022-09-30T12:40:27.180Z,639.9
2022-09-30T12:41:28.823Z,639.9
2022-09-30T12:42:31.351Z,639.9
2022-09-30T12:43:33.555Z,639.8
2022-09-30T12:44:36.088Z,639.9
2022-09-30T12:45:39.013Z,639.8
2022-09-30T12:46:41.244Z,640.2
2022-09-30T12:47:43.455Z,640.2
2022-09-30T12:48:45.942Z,640.5
2022-09-30T12:49:48.451Z,640.3
2022-09-30T12:50:50.382Z,639.9
2022-09-30T12:51:52.901Z,640.1
2022-09-30T12:52:55.088Z,640
2022-09-30T12:53:57.573Z,640
2022-09-30T12:55:00.056Z,639.8
2022-09-30T12:56:02.565Z,640
2022-09-30T12:57:04.284Z,639.9
2022-09-30T12:58:06.359Z,639.8
2022-09-30T12:59:08.312Z,639.8
2022-09-30T13:00:10.581Z,639.5
2022-09-30T13:01:13.288Z,639.7
2022-09-30T13:02:16.030Z,639.5
2022-09-30T13:03:18.550Z,640
2022-09-30T13:04:20.759Z,639.7
2022-09-30T13:05:22.956Z,639.6
2022-09-30T13:06:25.504Z,639.9
2022-09-30T13:07:27.460Z,639.7
2022-09-30T13:08:29.666Z,639.4
2022-09-30T13:09:31.596Z,639.5
2022-09-30T13:10:33.778Z,639.4
2022-09-30T13:11:35.976Z,639.4
2022-09-30T13:12:38.170Z,639.4
2022-09-30T13:13:40.440Z,639.9
2022-09-30T13:14:42.909Z,639.8
2022-09-30T13:15:45.399Z,639.8
2022-09-30T13:16:47.807Z,640
2022-09-30T13:17:50.306Z,639.9
2022-09-30T13:18:52.517Z,640.3
2022-09-30T13:19:54.738Z,640.1
2022-09-30T13:20:56.848Z,640
2022-09-30T13:21:59.107Z,639.9
2022-09-30T13:23:01.637Z,640.2
2022-09-30T13:24:04.166Z,640.2
2022-09-30T13:25:06.254Z,640
2022-09-30T13:26:08.457Z,640.2
2022-09-30T13:27:10.936Z,640.1
2022-09-30T13:28:13.892Z,640.1
2022-09-30T13:29:15.905Z,640.4
2022-09-30T13:30:18.416Z,640.4
2022-09-30T13:31:21.091Z,640.3
2022-09-30T13:32:23.390Z,640.1
2022-09-30T13:33:25.582Z,639.9
2022-09-30T13:34:27.779Z,639.9
2022-09-30T13:35:30.350Z,640.5
2022-09-30T13:36:35.353Z,639.7
2022-09-30T13:37:37.272Z,639.3
2022-09-30T13:38:39.817Z,639.4
2022-09-30T13:39:42.288Z,638.9
2022-09-30T13:41:49.483Z,638.9
2022-09-30T13:42:51.141Z,638.9
2022-09-30T13:43:53.616Z,639.1
2022-09-30T13:46:00.688Z,639.8
2022-09-30T13:47:02.898Z,639.8
2022-09-30T13:48:05.160Z,639.9
2022-09-30T13:49:06.828Z,639.8
2022-09-30T13:50:09.486Z,639.6
2022-09-30T13:51:11.429Z,640
2022-09-30T13:53:18.647Z,639.6
2022-09-30T13:54:20.908Z,639.9
2022-09-30T13:55:22.901Z,639.9
2022-09-30T13:56:25.407Z,640.1